createdAt,value
2022-09-01T06:36:13.053Z,23.60
2022-09-01T06:38:40.269Z,23.60
2022-09-01T06:41:09.780Z,23.60
2022-09-01T06:43:41.724Z,23.70
2022-09-01T10:17:40.545Z,26.20
2022-09-01T10:20:21.162Z,26.20
2022-09-01T10:22:50.823Z,26.20
2022-09-01T10:25:24.707Z,26.30
2022-09-01T10:30:48.605Z,26.50
2022-09-01T10:33:22.111Z,26.40
2022-09-01T10:35:52.413Z,26.50
2022-09-01T10:38:26.472Z,26.50
2022-09-01T10:41:21.680Z,26.70
2022-09-01T10:43:50.431Z,26.70
2022-09-01T10:46:38.671Z,26.80
2022-09-01T10:49:20.103Z,26.90
2022-09-01T10:51:56.721Z,27.00
2022-09-01T10:54:57.515Z,26.90
2022-09-01T10:57:44.646Z,27.00
2022-09-01T11:00:39.382Z,27.00
2022-09-01T11:06:17.718Z,26.90
2022-09-01T11:08:58.366Z,26.90
2022-09-01T11:11:46.682Z,27.00
2022-09-01T11:14:23.189Z,27.10
2022-09-01T11:17:15.756Z,27.20
2022-09-01T11:19:47.466Z,27.30
2022-09-01T11:22:14.279Z,27.30
2022-09-01T11:24:41.712Z,27.30
2022-09-01T11:27:12.186Z,27.40
2022-09-01T11:29:59.729Z,27.30
2022-09-01T11:32:38.296Z,27.40
2022-09-01T11:35:18.297Z,27.50
2022-09-01T11:37:50.522Z,27.60
2022-09-01T11:40:27.145Z,27.60
2022-09-01T11:43:13.658Z,27.70
2022-09-01T11:46:15.109Z,27.70
2022-09-01T11:48:47.092Z,27.60
2022-09-01T11:51:18.867Z,27.60
2022-09-01T11:53:46.836Z,27.60
2022-09-01T11:56:18.075Z,27.70
2022-09-01T11:58:45.021Z,27.80
2022-09-01T12:01:30.768Z,27.90
2022-09-01T12:03:58.947Z,28.10
2022-09-01T12:06:32.470Z,28.10
2022-09-01T12:09:03.028Z,28.20
2022-09-01T12:11:36.012Z,28.30
2022-09-01T12:14:10.870Z,28.30
2022-09-01T12:16:42.611Z,28.20
2022-09-01T12:19:24.971Z,28.20
2022-09-01T12:22:17.292Z,28.30
2022-09-01T12:24:49.917Z,28.40
2022-09-01T12:27:17.086Z,28.40
2022-09-01T12:29:44.542Z,28.30
2022-09-01T12:32:12.367Z,28.40
2022-09-01T12:34:41.242Z,28.40
2022-09-01T12:37:25.342Z,28.50
2022-09-01T17:37:59.449Z,26.20
2022-09-01T17:41:07.625Z,26.20
2022-09-01T17:43:57.659Z,26.20
2022-09-01T17:46:45.999Z,26.10
2022-09-01T17:49:18.055Z,26.10
2022-09-01T17:51:55.824Z,26.00
2022-09-01T17:54:43.947Z,25.90
2022-09-01T17:57:29.641Z,26.00
2022-09-01T18:00:06.347Z,25.90
2022-09-01T18:02:50.603Z,25.80
2022-09-01T18:05:24.493Z,25.80
2022-09-01T18:07:58.037Z,25.70
2022-09-01T18:10:47.977Z,25.70
2022-09-01T18:13:36.201Z,25.80
2022-09-01T18:16:30.738Z,25.70
2022-09-01T18:19:16.379Z,25.60
2022-09-01T18:21:52.265Z,25.50
2022-09-01T18:24:34.200Z,25.50
2022-09-01T18:27:03.681Z,25.50
2022-09-01T18:29:31.682Z,25.50
2022-09-01T18:31:58.595Z,25.40
2022-09-01T18:34:43.525Z,25.30
2022-09-01T18:37:30.287Z,25.30
2022-09-01T18:40:21.642Z,25.20
2022-09-01T18:43:06.680Z,25.30
2022-09-01T18:45:54.301Z,25.30
2022-09-01T18:48:39.843Z,25.10
2022-09-01T18:51:24.588Z,25.10
2022-09-01T18:53:59.634Z,25.10
2022-09-01T18:56:56.874Z,25.00
2022-09-01T18:59:36.687Z,24.90
2022-09-01T19:02:27.529Z,24.90
2022-09-01T19:05:14.184Z,24.90
2022-09-01T19:07:59.549Z,24.80
2022-09-01T19:10:39.895Z,24.80
2022-09-01T19:13:31.575Z,24.80
2022-09-01T19:16:19.873Z,24.80
2022-09-01T19:19:20.829Z,24.80
2022-09-01T19:21:51.833Z,24.80
2022-09-01T19:24:27.753Z,24.70
2022-09-01T19:27:00.244Z,24.70
2022-09-01T19:29:33.213Z,24.70
2022-09-01T19:32:07.464Z,24.70
2022-09-01T19:34:43.287Z,24.60
2022-09-01T19:37:11.392Z,24.60
2022-09-01T19:39:44.503Z,24.70
2022-09-01T19:42:36.078Z,24.70
2022-09-01T19:45:17.556Z,24.60
2022-09-01T19:48:06.210Z,24.60
2022-09-01T19:50:41.842Z,24.60
2022-09-01T19:53:33.864Z,24.60
2022-09-01T19:56:07.333Z,24.60
2022-09-01T19:58:51.732Z,24.60
2022-09-01T20:01:37.989Z,24.60
2022-09-01T20:04:17.378Z,24.60
2022-09-01T20:06:51.032Z,24.50
2022-09-01T20:09:46.267Z,24.50
2022-09-01T20:12:41.856Z,24.50
2022-09-01T20:15:30.197Z,24.50
2022-09-01T20:18:04.502Z,24.40
2022-09-01T20:20:47.419Z,24.40
2022-09-01T20:23:46.401Z,24.40
2022-09-01T20:26:23.269Z,24.50
2022-09-01T20:29:08.617Z,24.40
2022-09-01T20:31:45.644Z,24.40
2022-09-01T20:34:19.834Z,24.40
2022-09-01T20:36:51.841Z,24.30
2022-09-01T20:39:49.540Z,24.30
2022-09-01T20:42:23.396Z,24.40
